sensor_id;sensor_type;location;lat;lon;timestamp;P1;durP1;ratioP1;P2;durP2;ratioP2
30729;SDS011;17476;48.458;7.928;2024-01-30T00:02:10;0.20;;;0.20;;
30729;SDS011;17476;48.458;7.928;2024-01-30T00:04:36;0.30;;;0.30;;
30729;SDS011;17476;48.458;7.928;2024-01-30T00:07:01;0.40;;;0.40;;
30729;SDS011;17476;48.458;7.928;2024-01-30T00:09:28;0.30;;;0.30;;
30729;SDS011;17476;48.458;7.928;2024-01-30T00:11:54;0.23;;;0.23;;
30729;SDS011;17476;48.458;7.928;2024-01-30T00:14:19;0.20;;;0.20;;
30729;SDS011;17476;48.458;7.928;2024-01-30T00:16:45;0.30;;;0.30;;
30729;SDS011;17476;48.458;7.928;2024-01-30T00:19:11;0.30;;;0.30;;
30729;SDS011;17476;48.458;7.928;2024-01-30T00:21:37;0.30;;;0.30;;
30729;SDS011;17476;48.458;7.928;2024-01-30T00:24:03;0.30;;;0.30;;
30729;SDS011;17476;48.458;7.928;2024-01-30T00:26:29;0.20;;;0.20;;
30729;SDS011;17476;48.458;7.928;2024-01-30T00:28:55;0.30;;;0.30;;
30729;SDS011;17476;48.458;7.928;2024-01-30T00:31:20;0.30;;;0.30;;
30729;SDS011;17476;48.458;7.928;2024-01-30T00:33:46;0.30;;;0.30;;
30729;SDS011;17476;48.458;7.928;2024-01-30T00:36:12;0.20;;;0.20;;
30729;SDS011;17476;48.458;7.928;2024-01-30T00:38:38;0.30;;;0.30;;
30729;SDS011;17476;48.458;7.928;2024-01-30T00:41:03;0.33;;;0.33;;
30729;SDS011;17476;48.458;7.928;2024-01-30T00:43:29;0.40;;;0.40;;
30729;SDS011;17476;48.458;7.928;2024-01-30T00:45:56;0.37;;;0.37;;
30729;SDS011;17476;48.458;7.928;2024-01-30T00:48:23;0.20;;;0.20;;
30729;SDS011;17476;48.458;7.928;2024-01-30T00:50:48;0.20;;;0.20;;
30729;SDS011;17476;48.458;7.928;2024-01-30T00:53:14;0.30;;;0.30;;
30729;SDS011;17476;48.458;7.928;2024-01-30T00:55:40;0.30;;;0.30;;
30729;SDS011;17476;48.458;7.928;2024-01-30T00:58:06;0.30;;;0.30;;
30729;SDS011;17476;48.458;7.928;2024-01-30T01:00:32;0.20;;;0.20;;
30729;SDS011;17476;48.458;7.928;2024-01-30T01:02:58;0.20;;;0.20;;
30729;SDS011;17476;48.458;7.928;2024-01-30T01:05:24;0.10;;;0.10;;
30729;SDS011;17476;48.458;7.928;2024-01-30T01:07:50;0.30;;;0.30;;
30729;SDS011;17476;48.458;7.928;2024-01-30T01:10:16;0.27;;;0.27;;
30729;SDS011;17476;48.458;7.928;2024-01-30T01:12:43;0.13;;;0.13;;
30729;SDS011;17476;48.458;7.928;2024-01-30T01:15:09;0.30;;;0.30;;
30729;SDS011;17476;48.458;7.928;2024-01-30T01:17:36;0.30;;;0.30;;
30729;SDS011;17476;48.458;7.928;2024-01-30T01:20:03;0.30;;;0.30;;
30729;SDS011;17476;48.458;7.928;2024-01-30T01:22:31;0.10;;;0.10;;
30729;SDS011;17476;48.458;7.928;2024-01-30T01:24:57;0.30;;;0.30;;
30729;SDS011;17476;48.458;7.928;2024-01-30T01:27:24;0.30;;;0.30;;
30729;SDS011;17476;48.458;7.928;2024-01-30T01:29:50;0.30;;;0.30;;
30729;SDS011;17476;48.458;7.928;2024-01-30T01:32:16;0.30;;;0.30;;
30729;SDS011;17476;48.458;7.928;2024-01-30T01:34:42;0.20;;;0.20;;
30729;SDS011;17476;48.458;7.928;2024-01-30T01:37:08;0.20;;;0.20;;
30729;SDS011;17476;48.458;7.928;2024-01-30T01:39:33;0.30;;;0.30;;
30729;SDS011;17476;48.458;7.928;2024-01-30T01:41:59;0.30;;;0.30;;
30729;SDS011;17476;48.458;7.928;2024-01-30T01:44:25;0.20;;;0.20;;
30729;SDS011;17476;48.458;7.928;2024-01-30T01:46:51;0.23;;;0.23;;
30729;SDS011;17476;48.458;7.928;2024-01-30T01:49:18;0.27;;;0.27;;
30729;SDS011;17476;48.458;7.928;2024-01-30T01:51:47;0.20;;;0.20;;
30729;SDS011;17476;48.458;7.928;2024-01-30T01:54:14;0.40;;;0.40;;
30729;SDS011;17476;48.458;7.928;2024-01-30T01:56:40;0.37;;;0.37;;
30729;SDS011;17476;48.458;7.928;2024-01-30T01:59:08;0.27;;;0.27;;
30729;SDS011;17476;48.458;7.928;2024-01-30T02:01:37;0.20;;;0.20;;
30729;SDS011;17476;48.458;7.928;2024-01-30T02:04:04;0.20;;;0.20;;
30729;SDS011;17476;48.458;7.928;2024-01-30T02:06:30;0.20;;;0.20;;
30729;SDS011;17476;48.458;7.928;2024-01-30T02:08:57;0.20;;;0.20;;
30729;SDS011;17476;48.458;7.928;2024-01-30T02:11:22;0.30;;;0.30;;
30729;SDS011;17476;48.458;7.928;2024-01-30T02:13:49;0.20;;;0.20;;
30729;SDS011;17476;48.458;7.928;2024-01-30T02:16:15;0.23;;;0.23;;
30729;SDS011;17476;48.458;7.928;2024-01-30T02:18:42;0.20;;;0.20;;
30729;SDS011;17476;48.458;7.928;2024-01-30T02:21:11;0.20;;;0.20;;
30729;SDS011;17476;48.458;7.928;2024-01-30T02:23:37;0.30;;;0.30;;
30729;SDS011;17476;48.458;7.928;2024-01-30T02:26:05;0.30;;;0.30;;
30729;SDS011;17476;48.458;7.928;2024-01-30T02:28:31;0.30;;;0.30;;
30729;SDS011;17476;48.458;7.928;2024-01-30T02:30:57;0.27;;;0.27;;
30729;SDS011;17476;48.458;7.928;2024-01-30T02:33:23;0.30;;;0.30;;
30729;SDS011;17476;48.458;7.928;2024-01-30T02:35:49;0.30;;;0.30;;
30729;SDS011;17476;48.458;7.928;2024-01-30T02:38:17;0.30;;;0.30;;
30729;SDS011;17476;48.458;7.928;2024-01-30T02:40:43;0.30;;;0.30;;
30729;SDS011;17476;48.458;7.928;2024-01-30T02:43:09;0.20;;;0.20;;
30729;SDS011;17476;48.458;7.928;2024-01-30T02:45:35;0.20;;;0.20;;
30729;SDS011;17476;48.458;7.928;2024-01-30T02:48:01;0.20;;;0.20;;
30729;SDS011;17476;48.458;7.928;2024-01-30T02:50:27;0.20;;;0.20;;
30729;SDS011;17476;48.458;7.928;2024-01-30T02:52:52;0.27;;;0.27;;
30729;SDS011;17476;48.458;7.928;2024-01-30T02:55:21;0.20;;;0.20;;
30729;SDS011;17476;48.458;7.928;2024-01-30T02:57:47;0.20;;;0.20;;
30729;SDS011;17476;48.458;7.928;2024-01-30T03:00:13;0.23;;;0.23;;
30729;SDS011;17476;48.458;7.928;2024-01-30T03:02:39;0.30;;;0.30;;
30729;SDS011;17476;48.458;7.928;2024-01-30T03:05:05;0.30;;;0.30;;
30729;SDS011;17476;48.458;7.928;2024-01-30T03:07:33;0.30;;;0.30;;
30729;SDS011;17476;48.458;7.928;2024-01-30T03:09:58;0.30;;;0.30;;
30729;SDS011;17476;48.458;7.928;2024-01-30T03:12:24;0.20;;;0.20;;
30729;SDS011;17476;48.458;7.928;2024-01-30T03:14:50;0.30;;;0.30;;
30729;SDS011;17476;48.458;7.928;2024-01-30T03:17:16;0.20;;;0.20;;
30729;SDS011;17476;48.458;7.928;2024-01-30T03:19:42;0.30;;;0.30;;
30729;SDS011;17476;48.458;7.928;2024-01-30T03:22:07;0.30;;;0.30;;
30729;SDS011;17476;48.458;7.928;2024-01-30T03:24:33;0.23;;;0.23;;
30729;SDS011;17476;48.458;7.928;2024-01-30T03:26:59;0.33;;;0.33;;
30729;SDS011;17476;48.458;7.928;2024-01-30T03:29:25;0.30;;;0.30;;
30729;SDS011;17476;48.458;7.928;2024-01-30T03:31:50;0.30;;;0.30;;
30729;SDS011;17476;48.458;7.928;2024-01-30T03:34:16;0.30;;;0.30;;
30729;SDS011;17476;48.458;7.928;2024-01-30T03:36:42;0.20;;;0.20;;
30729;SDS011;17476;48.458;7.928;2024-01-30T03:39:08;0.27;;;0.27;;
30729;SDS011;17476;48.458;7.928;2024-01-30T03:41:33;0.30;;;0.30;;
30729;SDS011;17476;48.458;7.928;2024-01-30T03:43:59;0.20;;;0.20;;
30729;SDS011;17476;48.458;7.928;2024-01-30T03:46:25;0.20;;;0.20;;
30729;SDS011;17476;48.458;7.928;2024-01-30T03:48:50;0.20;;;0.20;;
30729;SDS011;17476;48.458;7.928;2024-01-30T03:51:16;0.30;;;0.30;;
30729;SDS011;17476;48.458;7.928;2024-01-30T03:53:42;0.20;;;0.20;;
30729;SDS011;17476;48.458;7.928;2024-01-30T03:56:08;0.23;;;0.23;;
30729;SDS011;17476;48.458;7.928;2024-01-30T03:58:34;0.30;;;0.30;;
30729;SDS011;17476;48.458;7.928;2024-01-30T04:01:01;0.20;;;0.20;;
30729;SDS011;17476;48.458;7.928;2024-01-30T04:03:27;0.20;;;0.20;;
30729;SDS011;17476;48.458;7.928;2024-01-30T04:05:52;0.30;;;0.30;;
30729;SDS011;17476;48.458;7.928;2024-01-30T04:08:19;0.30;;;0.30;;
30729;SDS011;17476;48.458;7.928;2024-01-30T04:10:45;0.30;;;0.30;;
30729;SDS011;17476;48.458;7.928;2024-01-30T04:13:11;0.20;;;0.20;;
30729;SDS011;17476;48.458;7.928;2024-01-30T04:15:37;0.30;;;0.30;;
30729;SDS011;17476;48.458;7.928;2024-01-30T04:18:03;0.20;;;0.20;;
30729;SDS011;17476;48.458;7.928;2024-01-30T04:20:29;0.20;;;0.20;;
30729;SDS011;17476;48.458;7.928;2024-01-30T04:22:55;0.30;;;0.30;;
30729;SDS011;17476;48.458;7.928;2024-01-30T04:25:21;0.20;;;0.20;;
30729;SDS011;17476;48.458;7.928;2024-01-30T04:27:47;0.20;;;0.20;;
30729;SDS011;17476;48.458;7.928;2024-01-30T04:30:13;0.20;;;0.20;;
30729;SDS011;17476;48.458;7.928;2024-01-30T04:32:38;0.20;;;0.20;;
30729;SDS011;17476;48.458;7.928;2024-01-30T04:35:04;0.20;;;0.20;;
30729;SDS011;17476;48.458;7.928;2024-01-30T04:37:30;0.30;;;0.30;;
30729;SDS011;17476;48.458;7.928;2024-01-30T04:39:56;0.37;;;0.37;;
30729;SDS011;17476;48.458;7.928;2024-01-30T04:42:22;0.20;;;0.20;;
30729;SDS011;17476;48.458;7.928;2024-01-30T04:44:48;0.30;;;0.30;;
30729;SDS011;17476;48.458;7.928;2024-01-30T04:47:14;0.20;;;0.20;;
30729;SDS011;17476;48.458;7.928;2024-01-30T04:49:40;0.30;;;0.30;;
30729;SDS011;17476;48.458;7.928;2024-01-30T04:52:06;0.20;;;0.20;;
30729;SDS011;17476;48.458;7.928;2024-01-30T04:54:33;0.23;;;0.23;;
30729;SDS011;17476;48.458;7.928;2024-01-30T04:57:00;0.30;;;0.30;;
30729;SDS011;17476;48.458;7.928;2024-01-30T04:59:30;0.30;;;0.30;;
30729;SDS011;17476;48.458;7.928;2024-01-30T05:01:56;0.20;;;0.20;;
30729;SDS011;17476;48.458;7.928;2024-01-30T05:04:22;0.30;;;0.30;;
30729;SDS011;17476;48.458;7.928;2024-01-30T05:06:47;0.23;;;0.23;;
30729;SDS011;17476;48.458;7.928;2024-01-30T05:09:13;0.30;;;0.30;;
30729;SDS011;17476;48.458;7.928;2024-01-30T05:11:39;0.30;;;0.30;;
30729;SDS011;17476;48.458;7.928;2024-01-30T05:14:06;0.23;;;0.23;;
30729;SDS011;17476;48.458;7.928;2024-01-30T05:16:33;0.20;;;0.20;;
30729;SDS011;17476;48.458;7.928;2024-01-30T05:18:59;0.30;;;0.30;;
30729;SDS011;17476;48.458;7.928;2024-01-30T05:21:25;0.30;;;0.30;;
30729;SDS011;17476;48.458;7.928;2024-01-30T05:23:51;0.30;;;0.30;;
30729;SDS011;17476;48.458;7.928;2024-01-30T05:26:17;0.10;;;0.10;;
30729;SDS011;17476;48.458;7.928;2024-01-30T05:28:43;0.20;;;0.20;;
30729;SDS011;17476;48.458;7.928;2024-01-30T05:31:11;0.30;;;0.30;;
30729;SDS011;17476;48.458;7.928;2024-01-30T05:33:37;0.20;;;0.20;;
30729;SDS011;17476;48.458;7.928;2024-01-30T05:36:03;0.30;;;0.30;;
30729;SDS011;17476;48.458;7.928;2024-01-30T05:38:29;0.20;;;0.20;;
30729;SDS011;17476;48.458;7.928;2024-01-30T05:40:55;0.20;;;0.20;;
30729;SDS011;17476;48.458;7.928;2024-01-30T05:43:23;0.20;;;0.20;;
30729;SDS011;17476;48.458;7.928;2024-01-30T05:45:49;0.30;;;0.30;;
30729;SDS011;17476;48.458;7.928;2024-01-30T05:48:15;0.20;;;0.20;;
30729;SDS011;17476;48.458;7.928;2024-01-30T05:50:41;0.20;;;0.20;;
30729;SDS011;17476;48.458;7.928;2024-01-30T05:53:06;0.30;;;0.30;;
30729;SDS011;17476;48.458;7.928;2024-01-30T05:55:32;0.30;;;0.30;;
30729;SDS011;17476;48.458;7.928;2024-01-30T05:57:58;0.20;;;0.20;;
30729;SDS011;17476;48.458;7.928;2024-01-30T06:00:24;0.30;;;0.30;;
30729;SDS011;17476;48.458;7.928;2024-01-30T06:02:49;0.20;;;0.20;;
30729;SDS011;17476;48.458;7.928;2024-01-30T06:05:15;0.30;;;0.30;;
30729;SDS011;17476;48.458;7.928;2024-01-30T06:07:41;0.30;;;0.30;;
30729;SDS011;17476;48.458;7.928;2024-01-30T06:10:07;0.20;;;0.20;;
30729;SDS011;17476;48.458;7.928;2024-01-30T06:12:34;0.37;;;0.37;;
30729;SDS011;17476;48.458;7.928;2024-01-30T06:15:00;0.20;;;0.20;;
30729;SDS011;17476;48.458;7.928;2024-01-30T06:17:27;0.30;;;0.30;;
30729;SDS011;17476;48.458;7.928;2024-01-30T06:19:53;0.33;;;0.33;;
30729;SDS011;17476;48.458;7.928;2024-01-30T06:22:19;0.20;;;0.20;;
30729;SDS011;17476;48.458;7.928;2024-01-30T06:24:45;0.27;;;0.27;;
30729;SDS011;17476;48.458;7.928;2024-01-30T06:27:13;0.30;;;0.30;;
30729;SDS011;17476;48.458;7.928;2024-01-30T06:29:39;0.20;;;0.20;;
30729;SDS011;17476;48.458;7.928;2024-01-30T06:32:05;0.20;;;0.20;;
30729;SDS011;17476;48.458;7.928;2024-01-30T06:34:31;0.30;;;0.30;;
30729;SDS011;17476;48.458;7.928;2024-01-30T06:36:57;0.20;;;0.20;;
30729;SDS011;17476;48.458;7.928;2024-01-30T06:39:23;0.20;;;0.20;;
30729;SDS011;17476;48.458;7.928;2024-01-30T06:41:49;0.30;;;0.30;;
30729;SDS011;17476;48.458;7.928;2024-01-30T06:44:14;0.20;;;0.20;;
30729;SDS011;17476;48.458;7.928;2024-01-30T06:46:40;0.20;;;0.20;;
30729;SDS011;17476;48.458;7.928;2024-01-30T06:49:06;0.20;;;0.20;;
30729;SDS011;17476;48.458;7.928;2024-01-30T06:51:32;0.30;;;0.30;;
30729;SDS011;17476;48.458;7.928;2024-01-30T06:53:57;0.20;;;0.20;;
30729;SDS011;17476;48.458;7.928;2024-01-30T06:56:23;0.30;;;0.30;;
30729;SDS011;17476;48.458;7.928;2024-01-30T06:58:49;0.20;;;0.20;;
30729;SDS011;17476;48.458;7.928;2024-01-30T07:01:16;0.20;;;0.20;;
30729;SDS011;17476;48.458;7.928;2024-01-30T07:03:42;0.20;;;0.20;;
30729;SDS011;17476;48.458;7.928;2024-01-30T07:06:08;0.20;;;0.20;;
30729;SDS011;17476;48.458;7.928;2024-01-30T07:08:36;0.30;;;0.30;;
30729;SDS011;17476;48.458;7.928;2024-01-30T07:11:03;0.20;;;0.20;;
30729;SDS011;17476;48.458;7.928;2024-01-30T07:13:31;0.20;;;0.20;;
30729;SDS011;17476;48.458;7.928;2024-01-30T07:15:57;0.30;;;0.30;;
30729;SDS011;17476;48.458;7.928;2024-01-30T07:18:23;0.23;;;0.23;;
30729;SDS011;17476;48.458;7.928;2024-01-30T07:20:48;0.30;;;0.30;;
30729;SDS011;17476;48.458;7.928;2024-01-30T07:23:15;0.20;;;0.20;;
30729;SDS011;17476;48.458;7.928;2024-01-30T07:25:45;0.30;;;0.30;;
30729;SDS011;17476;48.458;7.928;2024-01-30T07:28:13;0.23;;;0.23;;
30729;SDS011;17476;48.458;7.928;2024-01-30T07:30:41;0.30;;;0.30;;
30729;SDS011;17476;48.458;7.928;2024-01-30T07:33:08;0.20;;;0.20;;
30729;SDS011;17476;48.458;7.928;2024-01-30T07:35:34;0.20;;;0.20;;
30729;SDS011;17476;48.458;7.928;2024-01-30T07:38:01;0.30;;;0.30;;
30729;SDS011;17476;48.458;7.928;2024-01-30T07:40:27;0.20;;;0.20;;
30729;SDS011;17476;48.458;7.928;2024-01-30T07:42:53;0.30;;;0.30;;
30729;SDS011;17476;48.458;7.928;2024-01-30T07:45:19;0.27;;;0.27;;
30729;SDS011;17476;48.458;7.928;2024-01-30T07:47:49;0.20;;;0.20;;
30729;SDS011;17476;48.458;7.928;2024-01-30T07:50:15;0.30;;;0.30;;
30729;SDS011;17476;48.458;7.928;2024-01-30T07:52:42;0.20;;;0.20;;
30729;SDS011;17476;48.458;7.928;2024-01-30T07:55:08;0.20;;;0.20;;
30729;SDS011;17476;48.458;7.928;2024-01-30T07:57:34;0.30;;;0.30;;
30729;SDS011;17476;48.458;7.928;2024-01-30T08:00:00;0.10;;;0.10;;
30729;SDS011;17476;48.458;7.928;2024-01-30T08:02:28;0.20;;;0.20;;
30729;SDS011;17476;48.458;7.928;2024-01-30T08:04:53;0.10;;;0.10;;
30729;SDS011;17476;48.458;7.928;2024-01-30T08:07:19;0.20;;;0.20;;
30729;SDS011;17476;48.458;7.928;2024-01-30T08:09:47;0.20;;;0.20;;
30729;SDS011;17476;48.458;7.928;2024-01-30T08:12:12;0.20;;;0.20;;
30729;SDS011;17476;48.458;7.928;2024-01-30T08:14:38;0.30;;;0.30;;
30729;SDS011;17476;48.458;7.928;2024-01-30T08:17:06;0.17;;;0.17;;
30729;SDS011;17476;48.458;7.928;2024-01-30T08:19:32;0.27;;;0.27;;
30729;SDS011;17476;48.458;7.928;2024-01-30T08:21:58;0.20;;;0.20;;
30729;SDS011;17476;48.458;7.928;2024-01-30T08:24:24;0.20;;;0.20;;
30729;SDS011;17476;48.458;7.928;2024-01-30T08:26:50;0.20;;;0.20;;
30729;SDS011;17476;48.458;7.928;2024-01-30T08:29:16;0.20;;;0.20;;
30729;SDS011;17476;48.458;7.928;2024-01-30T08:31:42;0.30;;;0.30;;
30729;SDS011;17476;48.458;7.928;2024-01-30T08:34:07;0.30;;;0.30;;
30729;SDS011;17476;48.458;7.928;2024-01-30T08:36:33;0.30;;;0.30;;
30729;SDS011;17476;48.458;7.928;2024-01-30T08:38:59;0.20;;;0.20;;
30729;SDS011;17476;48.458;7.928;2024-01-30T08:41:25;0.20;;;0.20;;
30729;SDS011;17476;48.458;7.928;2024-01-30T08:43:52;0.20;;;0.20;;
30729;SDS011;17476;48.458;7.928;2024-01-30T08:46:18;0.20;;;0.20;;
30729;SDS011;17476;48.458;7.928;2024-01-30T08:48:44;0.10;;;0.10;;
30729;SDS011;17476;48.458;7.928;2024-01-30T08:51:11;0.30;;;0.30;;
30729;SDS011;17476;48.458;7.928;2024-01-30T08:53:37;0.30;;;0.30;;
30729;SDS011;17476;48.458;7.928;2024-01-30T08:56:05;0.17;;;0.17;;
30729;SDS011;17476;48.458;7.928;2024-01-30T08:58:32;0.20;;;0.20;;
30729;SDS011;17476;48.458;7.928;2024-01-30T09:00:58;0.30;;;0.30;;
30729;SDS011;17476;48.458;7.928;2024-01-30T09:03:24;0.27;;;0.27;;
30729;SDS011;17476;48.458;7.928;2024-01-30T09:05:49;0.10;;;0.10;;
30729;SDS011;17476;48.458;7.928;2024-01-30T09:08:15;0.20;;;0.20;;
30729;SDS011;17476;48.458;7.928;2024-01-30T09:10:41;0.20;;;0.20;;
30729;SDS011;17476;48.458;7.928;2024-01-30T09:13:07;0.20;;;0.20;;
30729;SDS011;17476;48.458;7.928;2024-01-30T09:15:32;0.20;;;0.20;;
30729;SDS011;17476;48.458;7.928;2024-01-30T09:17:58;0.20;;;0.20;;
30729;SDS011;17476;48.458;7.928;2024-01-30T09:20:24;0.20;;;0.20;;
30729;SDS011;17476;48.458;7.928;2024-01-30T09:22:50;0.30;;;0.30;;
30729;SDS011;17476;48.458;7.928;2024-01-30T09:25:15;0.20;;;0.20;;
30729;SDS011;17476;48.458;7.928;2024-01-30T09:27:41;0.10;;;0.10;;
30729;SDS011;17476;48.458;7.928;2024-01-30T09:30:07;0.20;;;0.20;;
30729;SDS011;17476;48.458;7.928;2024-01-30T09:32:33;0.23;;;0.23;;
30729;SDS011;17476;48.458;7.928;2024-01-30T09:34:59;0.20;;;0.20;;
30729;SDS011;17476;48.458;7.928;2024-01-30T09:37:25;0.20;;;0.20;;
30729;SDS011;17476;48.458;7.928;2024-01-30T09:39:53;0.20;;;0.20;;
30729;SDS011;17476;48.458;7.928;2024-01-30T09:45:03;0.20;;;0.20;;
30729;SDS011;17476;48.458;7.928;2024-01-30T09:47:39;0.10;;;0.10;;
30729;SDS011;17476;48.458;7.928;2024-01-30T09:50:08;0.10;;;0.10;;
30729;SDS011;17476;48.458;7.928;2024-01-30T09:52:35;0.20;;;0.20;;
30729;SDS011;17476;48.458;7.928;2024-01-30T09:55:02;0.20;;;0.20;;
30729;SDS011;17476;48.458;7.928;2024-01-30T09:57:28;0.10;;;0.10;;
30729;SDS011;17476;48.458;7.928;2024-01-30T09:59:55;0.10;;;0.10;;
30729;SDS011;17476;48.458;7.928;2024-01-30T10:02:21;0.20;;;0.20;;
30729;SDS011;17476;48.458;7.928;2024-01-30T10:04:50;0.20;;;0.20;;
30729;SDS011;17476;48.458;7.928;2024-01-30T10:07:17;0.20;;;0.20;;
30729;SDS011;17476;48.458;7.928;2024-01-30T10:09:44;0.20;;;0.20;;
30729;SDS011;17476;48.458;7.928;2024-01-30T10:12:10;0.10;;;0.10;;
30729;SDS011;17476;48.458;7.928;2024-01-30T10:14:37;0.10;;;0.10;;
30729;SDS011;17476;48.458;7.928;2024-01-30T10:17:04;0.10;;;0.10;;
30729;SDS011;17476;48.458;7.928;2024-01-30T10:19:31;0.20;;;0.20;;
30729;SDS011;17476;48.458;7.928;2024-01-30T10:21:56;0.20;;;0.20;;
30729;SDS011;17476;48.458;7.928;2024-01-30T10:24:24;0.10;;;0.10;;
30729;SDS011;17476;48.458;7.928;2024-01-30T10:26:51;0.10;;;0.10;;
30729;SDS011;17476;48.458;7.928;2024-01-30T10:29:18;0.10;;;0.10;;
30729;SDS011;17476;48.458;7.928;2024-01-30T10:31:44;0.20;;;0.20;;
30729;SDS011;17476;48.458;7.928;2024-01-30T10:34:10;0.20;;;0.20;;
30729;SDS011;17476;48.458;7.928;2024-01-30T10:36:44;0.10;;;0.10;;
30729;SDS011;17476;48.458;7.928;2024-01-30T10:39:13;0.20;;;0.20;;
30729;SDS011;17476;48.458;7.928;2024-01-30T10:41:44;0.10;;;0.10;;
30729;SDS011;17476;48.458;7.928;2024-01-30T10:44:13;0.10;;;0.10;;
30729;SDS011;17476;48.458;7.928;2024-01-30T10:46:45;0.10;;;0.10;;
30729;SDS011;17476;48.458;7.928;2024-01-30T10:49:31;0.17;;;0.17;;
30729;SDS011;17476;48.458;7.928;2024-01-30T10:51:58;0.10;;;0.10;;
30729;SDS011;17476;48.458;7.928;2024-01-30T10:54:24;0.20;;;0.20;;
30729;SDS011;17476;48.458;7.928;2024-01-30T10:56:51;0.13;;;0.13;;
30729;SDS011;17476;48.458;7.928;2024-01-30T10:59:18;0.10;;;0.10;;
30729;SDS011;17476;48.458;7.928;2024-01-30T11:01:46;0.20;;;0.20;;
30729;SDS011;17476;48.458;7.928;2024-01-30T11:04:12;0.10;;;0.10;;
30729;SDS011;17476;48.458;7.928;2024-01-30T11:06:41;0.00;;;0.00;;
30729;SDS011;17476;48.458;7.928;2024-01-30T11:09:10;0.00;;;0.00;;
30729;SDS011;17476;48.458;7.928;2024-01-30T11:11:56;0.00;;;0.00;;
30729;SDS011;17476;48.458;7.928;2024-01-30T11:14:27;0.10;;;0.10;;
30729;SDS011;17476;48.458;7.928;2024-01-30T11:16:59;0.10;;;0.10;;
30729;SDS011;17476;48.458;7.928;2024-01-30T11:19:25;0.10;;;0.10;;
30729;SDS011;17476;48.458;7.928;2024-01-30T11:21:52;0.10;;;0.10;;
30729;SDS011;17476;48.458;7.928;2024-01-30T11:24:22;0.10;;;0.10;;
30729;SDS011;17476;48.458;7.928;2024-01-30T11:26:49;0.10;;;0.10;;
30729;SDS011;17476;48.458;7.928;2024-01-30T11:29:20;0.10;;;0.10;;
30729;SDS011;17476;48.458;7.928;2024-01-30T11:31:54;0.10;;;0.10;;
30729;SDS011;17476;48.458;7.928;2024-01-30T11:34:21;0.10;;;0.10;;
30729;SDS011;17476;48.458;7.928;2024-01-30T11:36:48;0.10;;;0.10;;
30729;SDS011;17476;48.458;7.928;2024-01-30T11:39:23;0.10;;;0.10;;
30729;SDS011;17476;48.458;7.928;2024-01-30T11:41:54;0.10;;;0.10;;
30729;SDS011;17476;48.458;7.928;2024-01-30T11:44:21;0.10;;;0.10;;
30729;SDS011;17476;48.458;7.928;2024-01-30T11:46:51;0.10;;;0.10;;
30729;SDS011;17476;48.458;7.928;2024-01-30T11:49:18;0.10;;;0.10;;
30729;SDS011;17476;48.458;7.928;2024-01-30T11:51:47;0.10;;;0.10;;
30729;SDS011;17476;48.458;7.928;2024-01-30T11:54:17;0.20;;;0.20;;
30729;SDS011;17476;48.458;7.928;2024-01-30T11:56:42;0.10;;;0.10;;
30729;SDS011;17476;48.458;7.928;2024-01-30T11:59:09;0.10;;;0.10;;
30729;SDS011;17476;48.458;7.928;2024-01-30T12:01:34;0.10;;;0.10;;
30729;SDS011;17476;48.458;7.928;2024-01-30T12:04:01;0.10;;;0.10;;
30729;SDS011;17476;48.458;7.928;2024-01-30T12:06:28;0.10;;;0.10;;
30729;SDS011;17476;48.458;7.928;2024-01-30T12:08:57;0.10;;;0.10;;
30729;SDS011;17476;48.458;7.928;2024-01-30T12:11:25;0.10;;;0.10;;
30729;SDS011;17476;48.458;7.928;2024-01-30T12:13:52;0.10;;;0.10;;
30729;SDS011;17476;48.458;7.928;2024-01-30T12:16:19;0.20;;;0.20;;
30729;SDS011;17476;48.458;7.928;2024-01-30T12:18:45;0.10;;;0.10;;
30729;SDS011;17476;48.458;7.928;2024-01-30T12:21:11;0.10;;;0.10;;
30729;SDS011;17476;48.458;7.928;2024-01-30T12:23:37;0.10;;;0.10;;
30729;SDS011;17476;48.458;7.928;2024-01-30T12:26:03;0.07;;;0.07;;
30729;SDS011;17476;48.458;7.928;2024-01-30T12:28:32;0.10;;;0.10;;
30729;SDS011;17476;48.458;7.928;2024-01-30T12:31:01;0.10;;;0.10;;
30729;SDS011;17476;48.458;7.928;2024-01-30T12:33:28;0.10;;;0.10;;
30729;SDS011;17476;48.458;7.928;2024-01-30T12:35:55;0.10;;;0.10;;
30729;SDS011;17476;48.458;7.928;2024-01-30T12:38:22;0.10;;;0.10;;
30729;SDS011;17476;48.458;7.928;2024-01-30T12:40:50;0.10;;;0.10;;
30729;SDS011;17476;48.458;7.928;2024-01-30T12:43:24;0.00;;;0.00;;
30729;SDS011;17476;48.458;7.928;2024-01-30T12:45:52;0.10;;;0.10;;
30729;SDS011;17476;48.458;7.928;2024-01-30T12:48:18;0.00;;;0.00;;
30729;SDS011;17476;48.458;7.928;2024-01-30T12:50:43;0.10;;;0.10;;
30729;SDS011;17476;48.458;7.928;2024-01-30T12:53:09;0.10;;;0.10;;
30729;SDS011;17476;48.458;7.928;2024-01-30T12:55:36;0.10;;;0.10;;
30729;SDS011;17476;48.458;7.928;2024-01-30T12:58:02;0.00;;;0.00;;
30729;SDS011;17476;48.458;7.928;2024-01-30T13:00:28;0.00;;;0.00;;
30729;SDS011;17476;48.458;7.928;2024-01-30T13:02:54;0.10;;;0.10;;
30729;SDS011;17476;48.458;7.928;2024-01-30T13:05:20;0.00;;;0.00;;
30729;SDS011;17476;48.458;7.928;2024-01-30T13:07:46;0.10;;;0.10;;
30729;SDS011;17476;48.458;7.928;2024-01-30T13:10:12;0.10;;;0.10;;
30729;SDS011;17476;48.458;7.928;2024-01-30T13:12:38;0.10;;;0.10;;
30729;SDS011;17476;48.458;7.928;2024-01-30T13:15:04;0.10;;;0.10;;
30729;SDS011;17476;48.458;7.928;2024-01-30T13:17:30;0.10;;;0.10;;
30729;SDS011;17476;48.458;7.928;2024-01-30T13:19:57;0.00;;;0.00;;
30729;SDS011;17476;48.458;7.928;2024-01-30T13:22:23;0.03;;;0.03;;
30729;SDS011;17476;48.458;7.928;2024-01-30T13:24:50;0.10;;;0.10;;
30729;SDS011;17476;48.458;7.928;2024-01-30T13:27:15;0.10;;;0.10;;
30729;SDS011;17476;48.458;7.928;2024-01-30T13:29:42;0.00;;;0.00;;
30729;SDS011;17476;48.458;7.928;2024-01-30T13:32:08;0.10;;;0.10;;
30729;SDS011;17476;48.458;7.928;2024-01-30T13:34:33;0.00;;;0.00;;
30729;SDS011;17476;48.458;7.928;2024-01-30T13:36:59;0.10;;;0.10;;
30729;SDS011;17476;48.458;7.928;2024-01-30T13:39:25;0.10;;;0.10;;
30729;SDS011;17476;48.458;7.928;2024-01-30T13:41:51;0.10;;;0.10;;
30729;SDS011;17476;48.458;7.928;2024-01-30T13:44:18;0.10;;;0.10;;
30729;SDS011;17476;48.458;7.928;2024-01-30T13:46:44;0.10;;;0.10;;
30729;SDS011;17476;48.458;7.928;2024-01-30T13:49:10;0.10;;;0.10;;
30729;SDS011;17476;48.458;7.928;2024-01-30T13:51:35;0.00;;;0.00;;
30729;SDS011;17476;48.458;7.928;2024-01-30T13:54:01;0.10;;;0.10;;
30729;SDS011;17476;48.458;7.928;2024-01-30T13:56:27;0.00;;;0.00;;
30729;SDS011;17476;48.458;7.928;2024-01-30T13:58:54;0.10;;;0.10;;
30729;SDS011;17476;48.458;7.928;2024-01-30T14:01:21;0.07;;;0.07;;
30729;SDS011;17476;48.458;7.928;2024-01-30T14:03:47;0.10;;;0.10;;
30729;SDS011;17476;48.458;7.928;2024-01-30T14:06:14;0.10;;;0.10;;
30729;SDS011;17476;48.458;7.928;2024-01-30T14:08:39;0.00;;;0.00;;
30729;SDS011;17476;48.458;7.928;2024-01-30T14:11:05;0.10;;;0.10;;
30729;SDS011;17476;48.458;7.928;2024-01-30T14:13:31;0.10;;;0.10;;
30729;SDS011;17476;48.458;7.928;2024-01-30T14:15:57;0.10;;;0.10;;
30729;SDS011;17476;48.458;7.928;2024-01-30T14:18:23;0.10;;;0.10;;
30729;SDS011;17476;48.458;7.928;2024-01-30T14:20:50;0.10;;;0.10;;
30729;SDS011;17476;48.458;7.928;2024-01-30T14:23:16;0.10;;;0.10;;
30729;SDS011;17476;48.458;7.928;2024-01-30T14:25:43;0.10;;;0.10;;
30729;SDS011;17476;48.458;7.928;2024-01-30T14:28:09;0.00;;;0.00;;
30729;SDS011;17476;48.458;7.928;2024-01-30T14:30:35;0.10;;;0.10;;
30729;SDS011;17476;48.458;7.928;2024-01-30T14:33:01;0.10;;;0.10;;
30729;SDS011;17476;48.458;7.928;2024-01-30T14:35:27;0.10;;;0.10;;
30729;SDS011;17476;48.458;7.928;2024-01-30T14:37:53;0.10;;;0.10;;
30729;SDS011;17476;48.458;7.928;2024-01-30T14:40:19;0.10;;;0.10;;
30729;SDS011;17476;48.458;7.928;2024-01-30T14:42:45;0.10;;;0.10;;
30729;SDS011;17476;48.458;7.928;2024-01-30T14:45:11;0.10;;;0.10;;
30729;SDS011;17476;48.458;7.928;2024-01-30T14:47:37;0.10;;;0.10;;